NGN4830 EDDG-LGIR
Flight info
| Callsign | NGN4830 |
|---|---|
| Flight time | N/A |
| Altitude | 35000 |
| Route | DOMEG1W/25 DOMEG Z841 GMH Q603 TESGA L603 BOMBI T104 HAREM Z74 LAMPU DCT NOMBO Y161 MAH DCT VAVOR DCT RADIZ DCT LUMUS DCT EBITI DCT DEVUL DCT EVTON DCT SOLGU DCT NILKU DCT AKIKA DCT MAVAR DCT BITLA UN132 KEA UL607 GIVIS UT514 XAVIS |
| Aircraft | A320/M-SDE3FGHIRWY/LB1 |
Departure
| Time | 2026-04-25 15:58 |
|---|---|
| Airport | Münster Osnabrück Airport (EDDG) |
Arrival
| Time | N/A |
|---|---|
| Airport | Heraklion International Nikos Kazantzakis Airport (LGIR) |
| Time | Latitude | Longitude | Altitude | Speed | Heading |
|---|---|---|---|---|---|
| 2026-04-25 15:36 | 52.13166 | 7.69370 | 167 ft | 0 kts | 197° |
| 2026-04-25 15:49 | 52.13174 | 7.69374 | 167 ft | 2 kts | 197° |
| 2026-04-25 15:49 | 52.13188 | 7.69381 | 167 ft | 2 kts | 198° |
| 2026-04-25 15:49 | 52.13203 | 7.69389 | 167 ft | 2 kts | 197° |
| 2026-04-25 15:49 | 52.13212 | 7.69394 | 167 ft | 1 kts | 183° |
| 2026-04-25 15:50 | 52.13226 | 7.69386 | 167 ft | 2 kts | 136° |
| 2026-04-25 15:50 | 52.13233 | 7.69363 | 167 ft | 2 kts | 92° |
| 2026-04-25 15:50 | 52.13232 | 7.69350 | 167 ft | 1 kts | 67° |
| 2026-04-25 15:50 | 52.13230 | 7.69341 | 167 ft | 0 kts | 70° |
| 2026-04-25 15:53 | 52.13231 | 7.69344 | 167 ft | 1 kts | 70° |
| 2026-04-25 15:53 | 52.13239 | 7.69382 | 167 ft | 6 kts | 71° |
| 2026-04-25 15:53 | 52.13245 | 7.69409 | 167 ft | 0 kts | 71° |
| 2026-04-25 15:54 | 52.13248 | 7.69426 | 167 ft | 2 kts | 71° |
| 2026-04-25 15:54 | 52.13256 | 7.69455 | 167 ft | 1 kts | 55° |
| 2026-04-25 15:54 | 52.13279 | 7.69450 | 167 ft | 5 kts | 335° |
| 2026-04-25 15:54 | 52.13337 | 7.69413 | 167 ft | 10 kts | 341° |
| 2026-04-25 15:55 | 52.13393 | 7.69341 | 166 ft | 11 kts | 274° |
| 2026-04-25 15:55 | 52.13414 | 7.69229 | 166 ft | 11 kts | 346° |
| 2026-04-25 15:55 | 52.13469 | 7.69332 | 166 ft | 15 kts | 72° |
| 2026-04-25 15:55 | 52.13504 | 7.69506 | 166 ft | 16 kts | 71° |
| 2026-04-25 15:56 | 52.13543 | 7.69689 | 166 ft | 17 kts | 71° |
| 2026-04-25 15:56 | 52.13583 | 7.69875 | 166 ft | 17 kts | 72° |
| 2026-04-25 15:56 | 52.13642 | 7.70024 | 166 ft | 16 kts | 23° |
| 2026-04-25 15:56 | 52.13749 | 7.70003 | 166 ft | 12 kts | 338° |
| 2026-04-25 15:57 | 52.13771 | 7.69923 | 166 ft | 9 kts | 246° |
| 2026-04-25 15:57 | 52.13732 | 7.69752 | 166 ft | 38 kts | 251° |
| 2026-04-25 15:57 | 52.13562 | 7.68957 | 166 ft | 107 kts | 251° |
| 2026-04-25 15:57 | 52.13251 | 7.67476 | 186 ft | 160 kts | 251° |
| 2026-04-25 15:58 | 52.12883 | 7.65706 | 684 ft | 168 kts | 252° |
| 2026-04-25 15:58 | 52.12488 | 7.63867 | 1307 ft | 175 kts | 254° |
| 2026-04-25 15:58 | 52.12106 | 7.62049 | 2085 ft | 168 kts | 257° |
| 2026-04-25 15:58 | 52.11734 | 7.60207 | 2522 ft | 178 kts | 258° |
| 2026-04-25 15:59 | 52.11323 | 7.58185 | 2790 ft | 199 kts | 256° |
| 2026-04-25 15:59 | 52.10836 | 7.55929 | 3187 ft | 217 kts | 255° |
| 2026-04-25 15:59 | 52.10047 | 7.53653 | 3563 ft | 243 kts | 229° |
| 2026-04-25 15:59 | 52.08518 | 7.52206 | 3926 ft | 269 kts | 197° |
| 2026-04-25 16:00 | 52.06615 | 7.51862 | 4512 ft | 279 kts | 187° |
| 2026-04-25 16:00 | 52.05963 | 7.51784 | 4697 ft | 280 kts | 187° |
| 2026-04-25 16:00 | 52.02676 | 7.51316 | 5111 ft | 283 kts | 189° |
| 2026-04-25 16:00 | 52.00692 | 7.51115 | 5115 ft | 283 kts | 182° |
| 2026-04-25 16:01 | 51.98678 | 7.51355 | 5115 ft | 284 kts | 174° |
| 2026-04-25 16:01 | 51.96704 | 7.51854 | 5114 ft | 285 kts | 173° |
| 2026-04-25 16:01 | 51.94760 | 7.52390 | 5117 ft | 284 kts | 173° |
| 2026-04-25 16:01 | 51.92781 | 7.52938 | 5122 ft | 286 kts | 173° |
| 2026-04-25 16:02 | 51.90787 | 7.53478 | 5462 ft | 293 kts | 173° |
| 2026-04-25 16:02 | 51.88769 | 7.54020 | 6299 ft | 292 kts | 173° |
| 2026-04-25 16:02 | 51.86754 | 7.54556 | 7041 ft | 295 kts | 173° |
| 2026-04-25 16:02 | 51.84701 | 7.55096 | 7746 ft | 298 kts | 173° |
| 2026-04-25 16:03 | 51.82642 | 7.55638 | 8449 ft | 301 kts | 173° |
| 2026-04-25 16:03 | 51.80569 | 7.56184 | 9149 ft | 304 kts | 173° |
| 2026-04-25 16:03 | 51.78434 | 7.56747 | 9827 ft | 307 kts | 173° |
| 2026-04-25 16:03 | 51.76322 | 7.57301 | 10448 ft | 310 kts | 174° |
| 2026-04-25 16:04 | 51.74138 | 7.57872 | 10788 ft | 325 kts | 174° |
| 2026-04-25 16:04 | 51.71842 | 7.58549 | 11082 ft | 342 kts | 170° |
| 2026-04-25 16:04 | 51.69464 | 7.59554 | 11370 ft | 359 kts | 165° |
| 2026-04-25 16:04 | 51.67028 | 7.60889 | 11611 ft | 374 kts | 162° |
| 2026-04-25 16:05 | 51.64536 | 7.62323 | 11844 ft | 388 kts | 162° |
| 2026-04-25 16:05 | 51.61937 | 7.63823 | 12067 ft | 401 kts | 162° |
| 2026-04-25 16:05 | 51.56517 | 7.66932 | 12706 ft | 418 kts | 162° |
| 2026-04-25 16:06 | 51.53750 | 7.68510 | 13217 ft | 420 kts | 162° |
| 2026-04-25 16:06 | 51.51005 | 7.70072 | 13694 ft | 423 kts | 162° |
| 2026-04-25 16:06 | 51.48187 | 7.71670 | 14160 ft | 426 kts | 162° |
| 2026-04-25 16:06 | 51.45370 | 7.73264 | 14623 ft | 429 kts | 162° |
| 2026-04-25 16:07 | 51.42542 | 7.74864 | 15081 ft | 432 kts | 162° |
| 2026-04-25 16:07 | 51.40670 | 7.75920 | 15377 ft | 433 kts | 162° |
| 2026-04-25 16:07 | 51.36840 | 7.78081 | 15977 ft | 437 kts | 162° |
| 2026-04-25 16:07 | 51.33931 | 7.79722 | 16406 ft | 439 kts | 162° |
| 2026-04-25 16:08 | 51.31052 | 7.81342 | 16809 ft | 442 kts | 162° |
| 2026-04-25 16:08 | 51.28127 | 7.82985 | 17229 ft | 444 kts | 162° |
| 2026-04-25 16:08 | 51.25179 | 7.84641 | 17614 ft | 447 kts | 162° |
| 2026-04-25 16:08 | 51.22253 | 7.86281 | 17993 ft | 449 kts | 162° |
| 2026-04-25 16:09 | 51.19302 | 7.88030 | 18363 ft | 452 kts | 159° |
| 2026-04-25 16:09 | 51.16411 | 7.90137 | 18722 ft | 455 kts | 154° |
| 2026-04-25 16:09 | 51.13617 | 7.92632 | 19075 ft | 458 kts | 149° |
| 2026-04-25 16:09 | 51.10908 | 7.95375 | 19410 ft | 460 kts | 148° |
| 2026-04-25 16:10 | 51.08235 | 7.98132 | 19755 ft | 462 kts | 148° |
| 2026-04-25 16:10 | 51.05513 | 8.00932 | 20099 ft | 463 kts | 148° |
| 2026-04-25 16:10 | 51.02769 | 8.03733 | 20413 ft | 465 kts | 148° |
| 2026-04-25 16:10 | 51.00052 | 8.06489 | 20720 ft | 467 kts | 148° |
| 2026-04-25 16:11 | 50.97270 | 8.09299 | 20995 ft | 470 kts | 148° |
| 2026-04-25 16:11 | 50.94491 | 8.12100 | 21267 ft | 472 kts | 148° |
| 2026-04-25 16:11 | 50.91719 | 8.14891 | 21541 ft | 474 kts | 148° |
| 2026-04-25 16:11 | 50.88915 | 8.17711 | 21840 ft | 475 kts | 148° |
| 2026-04-25 16:12 | 50.86092 | 8.20547 | 22138 ft | 477 kts | 148° |
| 2026-04-25 16:12 | 50.83257 | 8.23392 | 22394 ft | 478 kts | 148° |
| 2026-04-25 16:12 | 50.80432 | 8.26222 | 22662 ft | 480 kts | 148° |
| 2026-04-25 16:12 | 50.78557 | 8.28099 | 22823 ft | 481 kts | 148° |
| 2026-04-25 16:13 | 50.74791 | 8.31862 | 23141 ft | 484 kts | 148° |
| 2026-04-25 16:13 | 50.71931 | 8.34715 | 23384 ft | 485 kts | 148° |
| 2026-04-25 16:13 | 50.69033 | 8.37600 | 23602 ft | 487 kts | 148° |
| 2026-04-25 16:13 | 50.66147 | 8.40471 | 23826 ft | 489 kts | 148° |
| 2026-04-25 16:14 | 50.63287 | 8.43312 | 24041 ft | 490 kts | 148° |
| 2026-04-25 16:14 | 50.60367 | 8.46209 | 24239 ft | 492 kts | 148° |
| 2026-04-25 16:14 | 50.57474 | 8.49074 | 24444 ft | 494 kts | 148° |
| 2026-04-25 16:14 | 50.54528 | 8.51986 | 24640 ft | 495 kts | 148° |
| 2026-04-25 16:15 | 50.51622 | 8.54854 | 24817 ft | 497 kts | 148° |
| 2026-04-25 16:15 | 50.48674 | 8.57758 | 25046 ft | 497 kts | 148° |
| 2026-04-25 16:15 | 50.45646 | 8.60434 | 25297 ft | 496 kts | 153° |
| 2026-04-25 16:15 | 50.42473 | 8.62675 | 25559 ft | 494 kts | 159° |
| 2026-04-25 16:16 | 50.39242 | 8.64429 | 25802 ft | 493 kts | 163° |
| 2026-04-25 16:16 | 50.35946 | 8.65984 | 26048 ft | 493 kts | 165° |
| 2026-04-25 16:16 | 50.32633 | 8.67507 | 26281 ft | 493 kts | 165° |
| 2026-04-25 16:16 | 50.29318 | 8.69029 | 26510 ft | 493 kts | 165° |
| 2026-04-25 16:17 | 50.26051 | 8.70538 | 26760 ft | 492 kts | 165° |
| 2026-04-25 16:17 | 50.22728 | 8.72082 | 27010 ft | 492 kts | 165° |
| 2026-04-25 16:17 | 50.19469 | 8.73601 | 27262 ft | 491 kts | 165° |
| 2026-04-25 16:17 | 50.16173 | 8.75137 | 27496 ft | 491 kts | 165° |
| 2026-04-25 16:18 | 50.12854 | 8.76681 | 27725 ft | 491 kts | 165° |
| 2026-04-25 16:18 | 50.11790 | 8.77176 | 27799 ft | 491 kts | 165° |
| 2026-04-25 16:18 | 50.06418 | 8.80335 | 28151 ft | 493 kts | 153° |
| 2026-04-25 16:18 | 50.03507 | 8.83151 | 28379 ft | 493 kts | 143° |
| 2026-04-25 16:19 | 50.00860 | 8.86588 | 28625 ft | 492 kts | 137° |
| 2026-04-25 16:19 | 49.98323 | 8.90197 | 28866 ft | 492 kts | 136° |
| 2026-04-25 16:19 | 49.95814 | 8.93818 | 29080 ft | 492 kts | 136° |
| 2026-04-25 16:20 | 49.90770 | 9.01033 | 29521 ft | 492 kts | 137° |
| 2026-04-25 16:20 | 49.88231 | 9.04623 | 29737 ft | 491 kts | 137° |
| 2026-04-25 16:20 | 49.83131 | 9.11786 | 30160 ft | 491 kts | 137° |
| 2026-04-25 16:21 | 49.80614 | 9.15308 | 30371 ft | 491 kts | 137° |
| 2026-04-25 16:21 | 49.78072 | 9.18861 | 30586 ft | 490 kts | 137° |
| 2026-04-25 16:21 | 49.75504 | 9.22446 | 30803 ft | 490 kts | 137° |
| 2026-04-25 16:21 | 49.72959 | 9.25995 | 31030 ft | 489 kts | 137° |
| 2026-04-25 16:22 | 49.70433 | 9.29508 | 31272 ft | 488 kts | 137° |
| 2026-04-25 16:22 | 49.67909 | 9.33015 | 31510 ft | 487 kts | 137° |
| 2026-04-25 16:22 | 49.65353 | 9.36551 | 31738 ft | 486 kts | 138° |
| 2026-04-25 16:22 | 49.62798 | 9.39816 | 31947 ft | 486 kts | 142° |
| 2026-04-25 16:23 | 49.60065 | 9.42902 | 32157 ft | 485 kts | 145° |
| 2026-04-25 16:23 | 49.57211 | 9.45718 | 32352 ft | 484 kts | 149° |
| 2026-04-25 16:23 | 49.54328 | 9.48342 | 32563 ft | 484 kts | 149° |
| 2026-04-25 16:23 | 49.51408 | 9.50988 | 32773 ft | 483 kts | 149° |
| 2026-04-25 16:24 | 49.48480 | 9.53646 | 32962 ft | 482 kts | 149° |
| 2026-04-25 16:24 | 49.45555 | 9.56304 | 33150 ft | 482 kts | 149° |
| 2026-04-25 16:24 | 49.42660 | 9.58938 | 33351 ft | 481 kts | 149° |
| 2026-04-25 16:24 | 49.39796 | 9.61544 | 33544 ft | 480 kts | 149° |
| 2026-04-25 16:25 | 49.36935 | 9.64333 | 33736 ft | 480 kts | 145° |
| 2026-04-25 16:25 | 49.35126 | 9.66291 | 33853 ft | 480 kts | 144° |
| 2026-04-25 16:25 | 49.31618 | 9.70605 | 34085 ft | 479 kts | 139° |
| 2026-04-25 16:25 | 49.29142 | 9.74132 | 34258 ft | 478 kts | 135° |
| 2026-04-25 16:26 | 49.26775 | 9.77760 | 34435 ft | 477 kts | 135° |
| 2026-04-25 16:26 | 49.24416 | 9.81387 | 34606 ft | 477 kts | 135° |
| 2026-04-25 16:26 | 49.22046 | 9.85020 | 34757 ft | 477 kts | 135° |
| 2026-04-25 16:26 | 49.19700 | 9.88600 | 34906 ft | 477 kts | 135° |
| 2026-04-25 16:27 | 49.17342 | 9.92186 | 35061 ft | 476 kts | 135° |
| 2026-04-25 16:27 | 49.12601 | 9.99372 | 35080 ft | 476 kts | 135° |
| 2026-04-25 16:28 | 49.07820 | 10.06594 | 35086 ft | 476 kts | 135° |
| 2026-04-25 16:28 | 49.03017 | 10.13618 | 35083 ft | 475 kts | 137° |
| 2026-04-25 16:29 | 48.98118 | 10.20477 | 35078 ft | 475 kts | 137° |
| 2026-04-25 16:29 | 48.93234 | 10.27350 | 35077 ft | 475 kts | 136° |
| 2026-04-25 16:30 | 48.88339 | 10.34259 | 35075 ft | 475 kts | 136° |
| 2026-04-25 16:30 | 48.83470 | 10.41134 | 35076 ft | 475 kts | 135° |
| 2026-04-25 16:31 | 48.78833 | 10.48424 | 35076 ft | 475 kts | 132° |
| 2026-04-25 16:31 | 48.74271 | 10.55739 | 35077 ft | 474 kts | 133° |
| 2026-04-25 16:32 | 48.69674 | 10.63077 | 35078 ft | 474 kts | 133° |
| 2026-04-25 16:32 | 48.65096 | 10.70355 | 35076 ft | 474 kts | 133° |
| 2026-04-25 16:33 | 48.60505 | 10.77637 | 35078 ft | 474 kts | 133° |
| 2026-04-25 16:33 | 48.55950 | 10.84885 | 35084 ft | 474 kts | 133° |
| 2026-04-25 16:34 | 48.51382 | 10.92199 | 35089 ft | 474 kts | 133° |
| 2026-04-25 16:34 | 48.46818 | 10.99431 | 35089 ft | 474 kts | 133° |
| 2026-04-25 16:35 | 48.42994 | 11.05384 | 35089 ft | 473 kts | 134° |
| 2026-04-25 16:35 | 48.37596 | 11.13768 | 35084 ft | 473 kts | 134° |
| 2026-04-25 16:36 | 48.32986 | 11.20913 | 35077 ft | 473 kts | 134° |
| 2026-04-25 16:36 | 48.28463 | 11.28186 | 35073 ft | 473 kts | 129° |
| 2026-04-25 16:37 | 48.24484 | 11.36145 | 35068 ft | 473 kts | 122° |
| 2026-04-25 16:37 | 48.21094 | 11.44671 | 35073 ft | 473 kts | 118° |
| 2026-04-25 16:38 | 48.17791 | 11.53276 | 35062 ft | 472 kts | 118° |
| 2026-04-25 16:38 | 48.14484 | 11.61820 | 35062 ft | 472 kts | 119° |
| 2026-04-25 16:39 | 48.11154 | 11.70373 | 35050 ft | 473 kts | 120° |
| 2026-04-25 16:39 | 48.07783 | 11.79001 | 35054 ft | 474 kts | 120° |
| 2026-04-25 16:40 | 48.04438 | 11.87533 | 35043 ft | 474 kts | 120° |
| 2026-04-25 16:40 | 48.01075 | 11.96086 | 35046 ft | 474 kts | 120° |
| 2026-04-25 16:41 | 47.97678 | 12.04672 | 35051 ft | 473 kts | 121° |
| 2026-04-25 16:41 | 47.91789 | 12.16497 | 35055 ft | 473 kts | 132° |
| 2026-04-25 16:42 | 47.87043 | 12.23459 | 35061 ft | 473 kts | 140° |
| 2026-04-25 16:42 | 47.81957 | 12.29805 | 35073 ft | 473 kts | 141° |
| 2026-04-25 16:43 | 47.76902 | 12.36100 | 35085 ft | 473 kts | 141° |
| 2026-04-25 16:43 | 47.71844 | 12.42406 | 35098 ft | 472 kts | 141° |
| 2026-04-25 16:44 | 47.66784 | 12.48701 | 35094 ft | 472 kts | 141° |
| 2026-04-25 16:44 | 47.61853 | 12.55192 | 35100 ft | 473 kts | 136° |
| 2026-04-25 16:45 | 47.57300 | 12.62370 | 35104 ft | 474 kts | 133° |
| 2026-04-25 16:45 | 47.52815 | 12.69586 | 35107 ft | 475 kts | 135° |
| 2026-04-25 16:46 | 47.48309 | 12.76800 | 35122 ft | 474 kts | 135° |
| 2026-04-25 16:46 | 47.44530 | 12.82828 | 35123 ft | 474 kts | 135° |
| 2026-04-25 16:47 | 47.39283 | 12.91171 | 35125 ft | 474 kts | 135° |
| 2026-04-25 16:47 | 47.34764 | 12.98333 | 35121 ft | 473 kts | 135° |
| 2026-04-25 16:48 | 47.30270 | 13.05437 | 35127 ft | 472 kts | 136° |
| 2026-04-25 16:48 | 47.25755 | 13.12556 | 35127 ft | 473 kts | 136° |
| 2026-04-25 16:49 | 47.21238 | 13.19657 | 35130 ft | 473 kts | 136° |
| 2026-04-25 16:49 | 47.16708 | 13.26761 | 35129 ft | 473 kts | 136° |
| 2026-04-25 16:50 | 47.12183 | 13.33840 | 35127 ft | 474 kts | 136° |
| 2026-04-25 16:50 | 47.07648 | 13.40914 | 35135 ft | 473 kts | 136° |
| 2026-04-25 16:51 | 47.03111 | 13.47976 | 35133 ft | 472 kts | 136° |
| 2026-04-25 16:51 | 46.99336 | 13.53832 | 35126 ft | 473 kts | 136° |
| 2026-04-25 16:52 | 46.94001 | 13.62088 | 35130 ft | 473 kts | 136° |
| 2026-04-25 16:52 | 46.89432 | 13.69140 | 35126 ft | 473 kts | 137° |
| 2026-04-25 16:53 | 46.82612 | 13.79628 | 35118 ft | 473 kts | 137° |
| 2026-04-25 16:54 | 46.78048 | 13.86625 | 35112 ft | 474 kts | 137° |
| 2026-04-25 16:54 | 46.73484 | 13.93608 | 35096 ft | 473 kts | 137° |
| 2026-04-25 16:55 | 46.68898 | 14.00604 | 35092 ft | 474 kts | 137° |
| 2026-04-25 16:55 | 46.64319 | 14.07573 | 35075 ft | 472 kts | 137° |
| 2026-04-25 16:56 | 46.59752 | 14.14497 | 35059 ft | 473 kts | 137° |
| 2026-04-25 16:56 | 46.55247 | 14.21518 | 35053 ft | 474 kts | 136° |
| 2026-04-25 16:57 | 46.50762 | 14.28657 | 35061 ft | 474 kts | 135° |
| 2026-04-25 16:57 | 46.46299 | 14.35726 | 35064 ft | 475 kts | 135° |
| 2026-04-25 16:58 | 46.41786 | 14.42837 | 35050 ft | 474 kts | 135° |
| 2026-04-25 16:58 | 46.37278 | 14.49921 | 35038 ft | 475 kts | 136° |
| 2026-04-25 16:59 | 46.32778 | 14.56967 | 35026 ft | 475 kts | 135° |
| 2026-04-25 16:59 | 46.28270 | 14.64009 | 35022 ft | 475 kts | 135° |
| 2026-04-25 17:00 | 46.23753 | 14.71048 | 35018 ft | 475 kts | 136° |
| 2026-04-25 17:00 | 46.19226 | 14.78080 | 35017 ft | 475 kts | 136° |
| 2026-04-25 17:01 | 46.14762 | 14.85002 | 35006 ft | 475 kts | 136° |
| 2026-04-25 17:01 | 46.10222 | 14.92023 | 34999 ft | 474 kts | 136° |
| 2026-04-25 17:02 | 46.05714 | 14.98974 | 34988 ft | 475 kts | 136° |
| 2026-04-25 17:02 | 46.01243 | 15.06110 | 34986 ft | 475 kts | 135° |
| 2026-04-25 17:03 | 45.96812 | 15.13241 | 34988 ft | 476 kts | 135° |
| 2026-04-25 17:03 | 45.92356 | 15.20378 | 34983 ft | 475 kts | 135° |
| 2026-04-25 17:04 | 45.87932 | 15.27430 | 34981 ft | 475 kts | 135° |
| 2026-04-25 17:04 | 45.83423 | 15.34597 | 34979 ft | 476 kts | 135° |
| 2026-04-25 17:05 | 45.79355 | 15.41043 | 34980 ft | 476 kts | 135° |
| 2026-04-25 17:05 | 45.72576 | 15.51754 | 34980 ft | 475 kts | 135° |
| 2026-04-25 17:06 | 45.68241 | 15.58583 | 34975 ft | 475 kts | 135° |
| 2026-04-25 17:06 | 45.63806 | 15.65552 | 34969 ft | 475 kts | 135° |
| 2026-04-25 17:07 | 45.59302 | 15.72611 | 34969 ft | 474 kts | 135° |
| 2026-04-25 17:07 | 45.54805 | 15.79638 | 34964 ft | 474 kts | 135° |
| 2026-04-25 17:08 | 45.50327 | 15.86621 | 34963 ft | 474 kts | 135° |
| 2026-04-25 17:08 | 45.45820 | 15.93634 | 34966 ft | 474 kts | 135° |
| 2026-04-25 17:09 | 45.41360 | 16.00550 | 34962 ft | 474 kts | 135° |
| 2026-04-25 17:09 | 45.36876 | 16.07489 | 34964 ft | 474 kts | 135° |
| 2026-04-25 17:10 | 45.32356 | 16.14464 | 34968 ft | 474 kts | 135° |
| 2026-04-25 17:10 | 45.27848 | 16.21406 | 34972 ft | 474 kts | 135° |
| 2026-04-25 17:11 | 45.23321 | 16.28361 | 34977 ft | 474 kts | 135° |
| 2026-04-25 17:11 | 45.18796 | 16.35291 | 34975 ft | 474 kts | 135° |
| 2026-04-25 17:12 | 45.14267 | 16.42189 | 34973 ft | 474 kts | 136° |
| 2026-04-25 17:12 | 45.09419 | 16.48603 | 34972 ft | 472 kts | 141° |
| 2026-04-25 17:13 | 45.05281 | 16.53713 | 34974 ft | 472 kts | 141° |
| 2026-04-25 17:13 | 44.99433 | 16.60924 | 34980 ft | 471 kts | 141° |
| 2026-04-25 17:14 | 44.94462 | 16.67047 | 34985 ft | 471 kts | 142° |
| 2026-04-25 17:14 | 44.89466 | 16.73187 | 34988 ft | 471 kts | 142° |
| 2026-04-25 17:15 | 44.84479 | 16.79302 | 34994 ft | 471 kts | 141° |
| 2026-04-25 17:15 | 44.79468 | 16.85434 | 34998 ft | 471 kts | 141° |
| 2026-04-25 17:16 | 44.74498 | 16.91500 | 34997 ft | 471 kts | 141° |
| 2026-04-25 17:16 | 44.69501 | 16.97572 | 35009 ft | 470 kts | 141° |
| 2026-04-25 17:17 | 44.64469 | 17.03601 | 35013 ft | 470 kts | 142° |
| 2026-04-25 17:17 | 44.59475 | 17.09562 | 35024 ft | 470 kts | 141° |
| 2026-04-25 17:18 | 44.54459 | 17.15544 | 35036 ft | 470 kts | 141° |
| 2026-04-25 17:18 | 44.49444 | 17.21512 | 35047 ft | 470 kts | 141° |
| 2026-04-25 17:19 | 44.44411 | 17.27489 | 35055 ft | 470 kts | 141° |
| 2026-04-25 17:19 | 44.39410 | 17.33413 | 35053 ft | 469 kts | 141° |
| 2026-04-25 17:20 | 44.34391 | 17.39345 | 35049 ft | 470 kts | 141° |
| 2026-04-25 17:20 | 44.29331 | 17.45308 | 35050 ft | 469 kts | 141° |
| 2026-04-25 17:21 | 44.24316 | 17.51210 | 35046 ft | 470 kts | 141° |
| 2026-04-25 17:21 | 44.19264 | 17.57140 | 35042 ft | 470 kts | 141° |
| 2026-04-25 17:22 | 44.15063 | 17.62058 | 35040 ft | 470 kts | 141° |
| 2026-04-25 17:22 | 44.09311 | 17.69231 | 35051 ft | 470 kts | 137° |
| 2026-04-25 17:23 | 44.04605 | 17.75706 | 35059 ft | 470 kts | 136° |
| 2026-04-25 17:23 | 43.99952 | 17.82097 | 35061 ft | 470 kts | 136° |
| 2026-04-25 17:24 | 43.95237 | 17.88551 | 35057 ft | 469 kts | 136° |
| 2026-04-25 17:24 | 43.90566 | 17.94929 | 35045 ft | 469 kts | 136° |
| 2026-04-25 17:25 | 43.86547 | 18.00383 | 35042 ft | 469 kts | 136° |
| 2026-04-25 17:25 | 43.81848 | 18.06774 | 35047 ft | 469 kts | 136° |
| 2026-04-25 17:26 | 43.77159 | 18.13144 | 35051 ft | 469 kts | 136° |
| 2026-04-25 17:26 | 43.72456 | 18.19511 | 35057 ft | 469 kts | 136° |
| 2026-04-25 17:27 | 43.67736 | 18.25884 | 35055 ft | 469 kts | 136° |
| 2026-04-25 17:27 | 43.64631 | 18.30066 | 35053 ft | 468 kts | 136° |
| 2026-04-25 17:28 | 43.58375 | 18.38473 | 35049 ft | 469 kts | 136° |
| 2026-04-25 17:28 | 43.53633 | 18.44828 | 35050 ft | 468 kts | 136° |
| 2026-04-25 17:29 | 43.48944 | 18.51102 | 35049 ft | 468 kts | 135° |
| 2026-04-25 17:29 | 43.44239 | 18.57381 | 35051 ft | 468 kts | 136° |
| 2026-04-25 17:30 | 43.39543 | 18.63631 | 35057 ft | 468 kts | 135° |
| 2026-04-25 17:30 | 43.34743 | 18.69915 | 35067 ft | 467 kts | 139° |
| 2026-04-25 17:31 | 43.29737 | 18.75652 | 35078 ft | 467 kts | 141° |
| 2026-04-25 17:31 | 43.24675 | 18.81349 | 35082 ft | 467 kts | 141° |
| 2026-04-25 17:32 | 43.19606 | 18.87049 | 35077 ft | 466 kts | 141° |
| 2026-04-25 17:32 | 43.14587 | 18.92683 | 35070 ft | 465 kts | 141° |
| 2026-04-25 17:33 | 43.09548 | 18.98326 | 35071 ft | 465 kts | 140° |
| 2026-04-25 17:33 | 43.04481 | 19.03989 | 35079 ft | 466 kts | 140° |
| 2026-04-25 17:34 | 42.99411 | 19.09641 | 35091 ft | 465 kts | 140° |
| 2026-04-25 17:34 | 42.94326 | 19.15300 | 35099 ft | 465 kts | 140° |
| 2026-04-25 17:35 | 42.89284 | 19.20897 | 35099 ft | 465 kts | 140° |
| 2026-04-25 17:35 | 42.84216 | 19.26510 | 35094 ft | 464 kts | 140° |
| 2026-04-25 17:36 | 42.79179 | 19.32080 | 35096 ft | 465 kts | 140° |
| 2026-04-25 17:36 | 42.74093 | 19.37692 | 35086 ft | 465 kts | 140° |
| 2026-04-25 17:37 | 42.69005 | 19.43292 | 35084 ft | 466 kts | 140° |
| 2026-04-25 17:37 | 42.63944 | 19.48849 | 35081 ft | 466 kts | 140° |
| 2026-04-25 17:38 | 42.59732 | 19.53466 | 35084 ft | 465 kts | 140° |
| 2026-04-25 17:38 | 42.53803 | 19.59951 | 35084 ft | 464 kts | 139° |
| 2026-04-25 17:39 | 42.48734 | 19.65480 | 35088 ft | 463 kts | 140° |
| 2026-04-25 17:39 | 42.43654 | 19.71005 | 35086 ft | 463 kts | 140° |
| 2026-04-25 17:40 | 42.38569 | 19.76524 | 35085 ft | 464 kts | 140° |
| 2026-04-25 17:40 | 42.33435 | 19.82084 | 35083 ft | 465 kts | 140° |
| 2026-04-25 17:41 | 42.28365 | 19.87564 | 35068 ft | 463 kts | 140° |
| 2026-04-25 17:41 | 42.23376 | 19.92945 | 35048 ft | 462 kts | 140° |